FVAB weather

Aberdeen Airport
Aberdeen, Manicaland Province, Zimbabwe

Public forecast

Using degrees Celsius for public forecast. Weather courtesy of forecast.io.

METAR (pilot weather report)

Closest report is Chimoio Airport, 71.7 nm (132.7 km) SE. Retrieved 2019/05/21 12:00 UTC (60 minutes ago):

FQCH 211200Z /////KT 9999 FEW020 26/09 Q1021

TAF (pilot weather forecast)

Forecast is more than 6 hours old.

Closest forecast is Chimoio Airport, 71.7 nm (132.7 km) SE. Retrieved 2019/05/21 06:00 UTC (7 hours ago):

TAF FQCH 210400Z 2106/2206 09007KT 9999 BKN015 TX26/2113Z TN15/2203Z PROB30 TEMPO 2106/2110 0800 FG SCT015 BECMG 2112/2114 VRB03KT BECMG 2118/2120 09010KT